createdAt,value
2024-02-13T00:00:50.912Z,56.33
2024-02-13T00:01:50.899Z,56.33
2024-02-13T00:02:51.020Z,56.33
2024-02-13T00:03:50.911Z,56.33
2024-02-13T00:04:50.933Z,56.33
2024-02-13T00:05:51.042Z,56.33
2024-02-13T00:06:50.989Z,56.33
2024-02-13T00:07:50.995Z,56.33
2024-02-13T00:08:51.109Z,56.33
2024-02-13T00:09:51.013Z,56.33
2024-02-13T00:10:51.003Z,56.33
2024-02-13T00:11:51.160Z,56.33
2024-02-13T00:12:51.033Z,56.33
2024-02-13T00:13:51.095Z,56.33
2024-02-13T00:14:52.101Z,56.33
2024-02-13T00:15:51.109Z,56.33
2024-02-13T00:16:51.072Z,56.33
2024-02-13T00:17:51.240Z,56.33
2024-02-13T00:18:51.168Z,56.33
2024-02-13T00:19:51.143Z,56.33
2024-02-13T00:20:51.234Z,56.33
2024-02-13T00:21:51.137Z,56.33
2024-02-13T00:22:51.142Z,56.33
2024-02-13T00:23:51.293Z,56.33
2024-02-13T00:24:51.214Z,56.33
2024-02-13T00:25:51.163Z,56.33
2024-02-13T00:26:51.228Z,56.33
2024-02-13T00:27:51.228Z,56.33
2024-02-13T00:28:51.229Z,56.33
2024-02-13T00:29:51.319Z,56.33
2024-02-13T00:30:51.248Z,56.33
2024-02-13T00:31:51.241Z,56.33
2024-02-13T00:32:51.305Z,56.33
2024-02-13T00:33:51.375Z,56.33
2024-02-13T00:34:51.411Z,56.33
2024-02-13T00:35:51.402Z,56.33
2024-02-13T00:36:51.336Z,56.33
2024-02-13T00:37:51.426Z,56.33
2024-02-13T00:38:51.447Z,56.33
2024-02-13T00:39:51.376Z,56.33
2024-02-13T00:40:51.441Z,56.33
2024-02-13T00:41:51.490Z,56.33
2024-02-13T00:42:51.433Z,56.33
2024-02-13T00:43:51.492Z,56.33
2024-02-13T00:44:51.671Z,56.33
2024-02-13T00:45:51.499Z,56.33
2024-02-13T00:46:51.496Z,56.33
2024-02-13T00:47:51.687Z,56.33
2024-02-13T00:48:51.654Z,56.33
2024-02-13T00:49:51.608Z,56.33
2024-02-13T00:50:51.777Z,56.33
2024-02-13T00:51:51.599Z,56.33
2024-02-13T00:52:51.613Z,56.33
2024-02-13T00:53:51.755Z,56.33
2024-02-13T00:54:51.623Z,56.33
2024-02-13T00:55:51.685Z,56.33
2024-02-13T00:56:51.763Z,56.33
2024-02-13T00:57:51.804Z,56.33
2024-02-13T00:58:51.884Z,56.33
2024-02-13T00:59:51.969Z,56.33
2024-02-13T01:00:51.994Z,56.33
2024-02-13T01:01:52.052Z,56.33
2024-02-13T01:02:52.108Z,56.33
2024-02-13T01:03:52.277Z,56.33
2024-02-13T01:04:52.203Z,56.33
2024-02-13T01:05:52.286Z,56.33
2024-02-13T01:06:52.322Z,56.33
2024-02-13T01:07:52.379Z,56.33
2024-02-13T01:08:52.499Z,56.33
2024-02-13T01:09:52.492Z,56.33
2024-02-13T01:10:52.524Z,56.33
2024-02-13T01:11:52.619Z,56.33
2024-02-13T01:12:52.623Z,56.33
2024-02-13T01:13:52.751Z,56.33
2024-02-13T01:14:52.788Z,56.33
2024-02-13T01:15:52.795Z,56.33
2024-02-13T01:16:52.873Z,56.33
2024-02-13T01:17:52.983Z,56.33
2024-02-13T01:18:53.391Z,56.33
2024-02-13T01:19:53.042Z,56.33
2024-02-13T01:20:53.083Z,56.33
2024-02-13T01:21:53.134Z,56.33
2024-02-13T01:22:53.163Z,56.33
2024-02-13T01:23:53.297Z,56.33
2024-02-13T01:24:53.286Z,56.33
2024-02-13T01:25:53.369Z,56.33
2024-02-13T01:26:53.446Z,56.33
2024-02-13T01:27:53.492Z,56.33
2024-02-13T01:28:53.547Z,56.33
2024-02-13T01:29:53.639Z,56.33
2024-02-13T01:30:53.682Z,56.33
2024-02-13T01:31:53.677Z,56.33
2024-02-13T01:32:53.876Z,56.33
2024-02-13T01:33:53.933Z,56.33
2024-02-13T01:34:53.919Z,56.33
2024-02-13T01:35:53.930Z,56.33
2024-02-13T01:36:53.961Z,56.33
2024-02-13T01:37:54.084Z,56.33
2024-02-13T01:38:54.202Z,56.33
2024-02-13T01:39:54.156Z,56.33
2024-02-13T01:40:54.190Z,56.33
2024-02-13T01:41:54.296Z,56.33
2024-02-13T01:42:54.298Z,56.33
2024-02-13T01:43:54.419Z,56.33
2024-02-13T01:44:54.446Z,56.33
2024-02-13T01:45:54.443Z,56.33
2024-02-13T01:46:54.554Z,56.33
2024-02-13T01:47:54.584Z,56.33
2024-02-13T01:48:54.732Z,56.33
2024-02-13T01:49:54.684Z,56.33
2024-02-13T01:50:54.907Z,56.33
2024-02-13T01:51:54.797Z,56.33
2024-02-13T01:52:54.840Z,56.33
2024-02-13T01:53:55.160Z,56.33
2024-02-13T01:54:54.998Z,56.33
2024-02-13T01:55:55.063Z,56.33
2024-02-13T01:56:55.115Z,56.33
2024-02-13T01:57:55.153Z,56.33
2024-02-13T01:58:55.216Z,56.33
2024-02-13T01:59:55.276Z,56.33
2024-02-13T02:00:55.361Z,56.33
2024-02-13T02:01:55.353Z,56.33
2024-02-13T02:02:55.523Z,56.33
2024-02-13T02:03:55.536Z,56.33
2024-02-13T02:04:55.496Z,56.33
2024-02-13T02:05:55.718Z,56.33
2024-02-13T02:06:55.695Z,56.33
2024-02-13T02:07:55.707Z,56.33
2024-02-13T02:08:55.821Z,56.33
2024-02-13T02:09:55.792Z,56.33
2024-02-13T02:10:55.869Z,56.33
2024-02-13T02:11:55.997Z,56.33
2024-02-13T02:12:55.959Z,56.33
2024-02-13T02:13:56.059Z,56.33
2024-02-13T02:14:56.100Z,56.33
2024-02-13T02:15:56.101Z,56.33
2024-02-13T02:16:56.198Z,56.33
2024-02-13T02:17:56.417Z,56.33
2024-02-13T02:18:56.409Z,56.33
2024-02-13T02:19:56.353Z,56.33
2024-02-13T02:20:56.450Z,56.33
2024-02-13T02:21:56.410Z,56.33
2024-02-13T02:22:56.486Z,56.33
2024-02-13T02:23:56.699Z,56.33
2024-02-13T02:24:56.600Z,56.33
2024-02-13T02:25:56.631Z,56.33
2024-02-13T02:26:56.731Z,56.33
2024-02-13T02:27:56.778Z,56.33
2024-02-13T02:28:56.822Z,56.33
2024-02-13T02:29:56.931Z,56.33
2024-02-13T02:30:56.911Z,56.33
2024-02-13T02:31:56.986Z,56.33
2024-02-13T02:32:57.093Z,56.33
2024-02-13T02:33:57.246Z,56.33
2024-02-13T02:34:57.270Z,56.33
2024-02-13T02:35:57.322Z,56.33
2024-02-13T02:36:57.247Z,56.33
2024-02-13T02:37:57.329Z,56.33
2024-02-13T02:38:57.536Z,56.33
2024-02-13T02:39:57.414Z,56.33
2024-02-13T02:40:57.457Z,56.33
2024-02-13T02:41:57.562Z,56.33
2024-02-13T02:42:57.593Z,56.33
2024-02-13T02:43:57.654Z,56.33
2024-02-13T02:44:57.753Z,56.33
2024-02-13T02:45:57.758Z,56.33
2024-02-13T02:46:57.799Z,56.33
2024-02-13T02:47:57.998Z,56.33
2024-02-13T02:48:58.032Z,56.33
2024-02-13T02:49:57.957Z,56.33
2024-02-13T02:50:58.101Z,56.33
2024-02-13T02:51:58.107Z,56.33
2024-02-13T02:52:58.162Z,56.33
2024-02-13T02:53:58.236Z,56.33
2024-02-13T02:54:58.279Z,56.33
2024-02-13T02:55:58.280Z,56.33
2024-02-13T02:56:58.407Z,56.33
2024-02-13T02:57:58.504Z,56.33
2024-02-13T02:58:58.508Z,56.33
2024-02-13T02:59:58.582Z,56.33
2024-02-13T03:00:58.714Z,56.33
2024-02-13T03:01:58.632Z,56.33
2024-02-13T03:02:58.829Z,56.33
2024-02-13T03:03:58.972Z,56.33
2024-02-13T03:04:58.809Z,56.33
2024-02-13T03:05:58.920Z,56.33
2024-02-13T03:06:58.939Z,56.33
2024-02-13T03:07:58.974Z,56.33
2024-02-13T03:08:59.103Z,56.33
2024-02-13T03:09:59.157Z,56.33
2024-02-13T03:10:59.149Z,56.33
2024-02-13T03:11:59.218Z,56.33
2024-02-13T03:12:59.254Z,56.33
2024-02-13T03:13:59.317Z,56.33
2024-02-13T03:14:59.351Z,56.33
2024-02-13T03:15:59.460Z,56.33
2024-02-13T03:16:59.396Z,56.33
2024-02-13T03:17:59.542Z,56.33
2024-02-13T03:18:59.611Z,56.33
2024-02-13T03:19:59.459Z,56.33
2024-02-13T03:20:59.532Z,56.33
2024-02-13T03:21:59.474Z,56.33
2024-02-13T03:22:59.471Z,56.33
2024-02-13T03:23:59.514Z,56.33
2024-02-13T03:25:01.183Z,56.33
2024-02-13T03:25:59.558Z,56.33
2024-02-13T03:26:59.572Z,56.33
2024-02-13T03:27:59.615Z,56.33
2024-02-13T03:28:59.577Z,56.33
2024-02-13T03:29:59.589Z,56.33
2024-02-13T03:30:59.593Z,56.33
2024-02-13T03:32:00.620Z,56.33
2024-02-13T03:32:59.831Z,56.33
2024-02-13T03:33:59.819Z,56.33
2024-02-13T03:34:59.734Z,56.33
2024-02-13T03:35:59.716Z,56.33
2024-02-13T03:36:59.751Z,56.33
2024-02-13T03:37:59.735Z,56.33
2024-02-13T03:38:59.834Z,56.33
2024-02-13T03:39:59.855Z,56.33
2024-02-13T03:40:59.826Z,56.33
2024-02-13T03:41:59.823Z,56.33
2024-02-13T03:42:59.830Z,56.33
2024-02-13T03:43:59.870Z,56.33
2024-02-13T03:44:59.855Z,56.33
2024-02-13T03:45:59.892Z,56.33
2024-02-13T03:46:59.912Z,56.33
2024-02-13T03:48:00.093Z,56.33
2024-02-13T03:49:00.080Z,56.33
2024-02-13T03:50:00.015Z,56.33
2024-02-13T03:50:59.995Z,56.33
2024-02-13T03:51:59.993Z,56.33
2024-02-13T03:53:00.010Z,56.33
2024-02-13T03:53:59.981Z,56.33
2024-02-13T03:55:00.034Z,56.33
2024-02-13T03:56:00.035Z,56.33
2024-02-13T03:57:00.074Z,56.33
2024-02-13T03:58:00.025Z,56.33
2024-02-13T03:59:00.093Z,56.33
2024-02-13T04:00:00.180Z,56.33
2024-02-13T04:01:00.121Z,56.33
2024-02-13T04:02:00.127Z,56.33
2024-02-13T04:03:00.116Z,56.33
2024-02-13T04:04:00.190Z,56.33
2024-02-13T04:05:00.194Z,56.33
2024-02-13T04:06:00.309Z,56.33
2024-02-13T04:07:00.206Z,56.33
2024-02-13T04:08:00.205Z,56.33
2024-02-13T04:09:00.219Z,56.33
2024-02-13T04:10:00.290Z,56.33
2024-02-13T04:11:00.278Z,56.33
2024-02-13T04:12:00.266Z,56.33
2024-02-13T04:13:00.283Z,56.33
2024-02-13T04:14:00.300Z,56.33
2024-02-13T04:15:00.381Z,56.33
2024-02-13T04:16:00.312Z,56.33
2024-02-13T04:17:00.457Z,56.33
2024-02-13T04:18:00.430Z,56.33
2024-02-13T04:19:00.612Z,56.33
2024-02-13T04:20:00.388Z,56.33
2024-02-13T04:21:00.421Z,56.33
2024-02-13T04:22:00.417Z,56.33
2024-02-13T04:23:00.537Z,56.33
2024-02-13T04:24:00.544Z,56.33
2024-02-13T04:25:00.504Z,56.33
2024-02-13T04:26:00.497Z,56.33
2024-02-13T04:27:00.566Z,56.33
2024-02-13T04:28:00.539Z,56.33
2024-02-13T04:29:00.520Z,56.33
2024-02-13T04:30:00.733Z,56.33
2024-02-13T04:31:00.616Z,56.33
2024-02-13T04:32:00.756Z,56.33
2024-02-13T04:33:01.079Z,56.33
2024-02-13T04:34:00.924Z,56.33
2024-02-13T04:35:00.774Z,56.33
2024-02-13T04:36:00.755Z,56.33
2024-02-13T04:37:00.769Z,56.33
2024-02-13T04:38:00.789Z,56.33
2024-02-13T04:39:00.829Z,56.33
2024-02-13T04:40:00.825Z,56.33
2024-02-13T04:41:00.850Z,56.33
2024-02-13T04:42:00.835Z,56.33
2024-02-13T04:43:00.851Z,56.33
2024-02-13T04:44:00.904Z,56.33
2024-02-13T04:45:00.907Z,56.33
2024-02-13T04:46:00.952Z,56.33
2024-02-13T04:47:00.979Z,56.33
2024-02-13T04:48:01.146Z,56.33
2024-02-13T04:49:01.057Z,56.33
2024-02-13T04:50:01.002Z,56.33
2024-02-13T04:51:01.062Z,56.33
2024-02-13T04:52:01.060Z,56.33
2024-02-13T04:53:01.063Z,56.33
2024-02-13T04:54:01.082Z,56.33
2024-02-13T04:55:01.139Z,56.33
2024-02-13T04:56:01.131Z,56.33
2024-02-13T04:57:01.150Z,56.33
2024-02-13T04:58:01.165Z,56.33
2024-02-13T04:59:01.159Z,56.33
2024-02-13T05:00:01.190Z,56.33
2024-02-13T05:01:01.237Z,56.33
2024-02-13T05:02:01.221Z,56.33
2024-02-13T05:03:08.625Z,50.00
2024-02-13T05:04:08.598Z,50.00
2024-02-13T05:05:08.647Z,50.00
2024-02-13T05:06:08.848Z,50.00
2024-02-13T05:07:08.661Z,50.00
2024-02-13T05:08:08.645Z,50.00
2024-02-13T05:09:08.790Z,50.00
2024-02-13T05:10:08.674Z,50.00
2024-02-13T05:11:08.674Z,50.00
2024-02-13T05:12:08.680Z,50.00
2024-02-13T05:13:08.706Z,26.17
2024-02-13T05:14:08.692Z,1.98
2024-02-13T05:15:08.721Z,0.00
2024-02-13T05:16:08.707Z,0.00
2024-02-13T05:17:08.723Z,0.00
2024-02-13T05:18:08.838Z,0.00
2024-02-13T05:19:08.838Z,0.00
2024-02-13T05:20:08.804Z,0.00
2024-02-13T05:21:08.908Z,0.00
2024-02-13T05:22:08.773Z,0.00
2024-02-13T05:23:08.790Z,0.00
2024-02-13T05:24:08.768Z,0.00
2024-02-13T05:25:08.819Z,0.00
2024-02-13T05:26:08.798Z,5.94
2024-02-13T05:27:08.811Z,15.62
2024-02-13T05:28:08.820Z,24.91
2024-02-13T05:29:08.865Z,37.02
2024-02-13T05:30:08.956Z,48.89
2024-02-13T05:31:08.864Z,51.26
2024-02-13T05:32:08.876Z,48.12
2024-02-13T05:33:09.018Z,50.81
2024-02-13T05:34:09.002Z,50.00
2024-02-13T05:35:08.905Z,50.17
2024-02-13T05:36:08.960Z,50.21
2024-02-13T05:37:08.929Z,50.00
2024-02-13T05:38:08.954Z,50.00
2024-02-13T05:39:08.952Z,50.15
2024-02-13T05:40:09.022Z,50.85
2024-02-13T05:41:08.998Z,51.21
2024-02-13T05:42:09.011Z,51.94
2024-02-13T05:43:09.037Z,50.64
2024-02-13T05:44:08.996Z,50.87
2024-02-13T05:45:09.039Z,50.43
2024-02-13T05:46:09.085Z,51.08
2024-02-13T05:47:09.097Z,51.25
2024-02-13T05:48:09.167Z,49.18
2024-02-13T05:49:09.233Z,50.17
2024-02-13T05:50:09.206Z,50.79
2024-02-13T05:51:09.214Z,52.44
2024-02-13T05:52:09.253Z,50.24
2024-02-13T05:53:09.267Z,50.00
2024-02-13T05:54:09.413Z,54.03
2024-02-13T05:55:09.314Z,52.43
2024-02-13T05:56:09.456Z,52.09
2024-02-13T05:57:09.376Z,50.19
2024-02-13T05:58:09.359Z,52.42
2024-02-13T05:59:09.417Z,52.40
2024-02-13T06:00:10.981Z,51.69
2024-02-13T06:01:09.588Z,53.07
2024-02-13T06:02:09.464Z,51.30
2024-02-13T06:03:09.560Z,49.85
2024-02-13T06:04:09.568Z,49.51
2024-02-13T06:05:09.568Z,53.52
2024-02-13T06:06:09.641Z,51.21
2024-02-13T06:07:09.644Z,53.17
2024-02-13T06:08:09.639Z,54.00
2024-02-13T06:09:09.638Z,53.84
2024-02-13T06:10:09.684Z,51.51
2024-02-13T06:11:09.717Z,50.86
2024-02-13T06:12:09.760Z,55.35
2024-02-13T06:13:09.758Z,50.00
2024-02-13T06:14:09.785Z,51.86
2024-02-13T06:15:09.793Z,52.96
2024-02-13T06:16:09.784Z,51.58
2024-02-13T06:17:09.799Z,50.00
2024-02-13T06:18:09.968Z,53.62
2024-02-13T06:19:09.934Z,50.00
2024-02-13T06:20:09.928Z,51.50
2024-02-13T06:21:09.883Z,52.55
2024-02-13T06:22:09.931Z,53.45
2024-02-13T06:23:09.976Z,51.97
2024-02-13T06:24:10.004Z,52.95
2024-02-13T06:25:10.109Z,52.58
2024-02-13T06:26:10.064Z,51.29
2024-02-13T06:27:10.128Z,52.30
2024-02-13T06:28:10.111Z,52.49
2024-02-13T06:29:10.124Z,50.00
2024-02-13T06:30:10.185Z,53.43
2024-02-13T06:31:10.190Z,52.74
2024-02-13T06:32:10.212Z,53.92
2024-02-13T06:33:10.304Z,54.42
2024-02-13T06:34:10.410Z,52.72
2024-02-13T06:35:10.275Z,50.00
2024-02-13T06:36:10.266Z,52.22
2024-02-13T06:37:10.340Z,50.00
2024-02-13T06:38:11.374Z,51.40
2024-02-13T06:39:10.349Z,53.68
2024-02-13T06:40:10.389Z,53.33
2024-02-13T06:41:10.414Z,53.16
2024-02-13T06:42:10.454Z,50.23
2024-02-13T06:43:10.405Z,52.26
2024-02-13T06:44:10.492Z,54.06
2024-02-13T06:45:10.838Z,54.52
2024-02-13T06:46:10.572Z,52.70
2024-02-13T06:47:10.537Z,52.57
2024-02-13T06:48:10.647Z,52.19
2024-02-13T06:49:10.712Z,53.36
2024-02-13T06:50:10.724Z,52.09
2024-02-13T06:51:10.675Z,50.00
2024-02-13T06:52:10.671Z,51.29
2024-02-13T06:53:10.800Z,51.03
2024-02-13T06:54:10.693Z,52.33
2024-02-13T06:55:10.779Z,53.29
2024-02-13T06:56:10.747Z,52.22
2024-02-13T06:57:10.809Z,51.08
2024-02-13T06:58:10.800Z,52.12
2024-02-13T06:59:10.910Z,50.00
2024-02-13T07:00:10.937Z,53.13
2024-02-13T07:01:10.950Z,52.14
2024-02-13T07:02:10.919Z,51.45
2024-02-13T07:03:10.929Z,52.08
2024-02-13T07:04:10.981Z,52.53
2024-02-13T07:05:11.050Z,53.21
2024-02-13T07:06:11.113Z,51.91
2024-02-13T07:07:25.369Z,53.32
2024-02-13T07:08:12.033Z,53.36
2024-02-13T07:09:11.119Z,53.45
2024-02-13T07:10:11.116Z,54.12
2024-02-13T07:11:11.020Z,52.24
2024-02-13T07:12:11.025Z,51.97
2024-02-13T07:13:11.037Z,52.87
2024-02-13T07:14:11.100Z,53.94
2024-02-13T07:15:11.210Z,52.03
2024-02-13T07:16:11.121Z,50.40
2024-02-13T07:17:11.151Z,52.82
2024-02-13T07:18:11.243Z,50.28
2024-02-13T07:19:11.450Z,52.40
2024-02-13T07:20:11.246Z,55.04
2024-02-13T07:21:11.183Z,52.52
2024-02-13T07:22:11.163Z,50.46
2024-02-13T07:23:11.410Z,53.63
2024-02-13T07:24:11.125Z,52.13
2024-02-13T07:25:11.190Z,50.00
2024-02-13T07:26:11.212Z,52.83
2024-02-13T07:27:11.205Z,50.87
2024-02-13T07:28:11.212Z,50.81
2024-02-13T07:29:11.367Z,54.36
2024-02-13T07:30:11.196Z,54.93
2024-02-13T07:31:11.200Z,52.69
2024-02-13T07:32:13.274Z,50.60
2024-02-13T07:33:11.398Z,53.51
2024-02-13T07:34:11.361Z,50.93
2024-02-13T07:35:11.239Z,53.96
2024-02-13T07:36:11.305Z,51.47
2024-02-13T07:37:11.252Z,53.26
2024-02-13T07:38:11.315Z,53.01
2024-02-13T07:39:11.312Z,52.30
2024-02-13T07:40:11.325Z,52.63
2024-02-13T07:41:11.302Z,52.03
2024-02-13T07:42:11.292Z,51.96
2024-02-13T07:43:11.310Z,50.00
2024-02-13T07:44:11.388Z,52.74
2024-02-13T07:45:11.328Z,52.19
2024-02-13T07:46:11.334Z,54.79
2024-02-13T07:47:11.415Z,52.90
2024-02-13T07:48:11.421Z,55.52
2024-02-13T07:49:11.493Z,55.05
2024-02-13T07:50:11.978Z,53.67
2024-02-13T07:51:11.453Z,53.80
2024-02-13T07:52:11.477Z,52.30
2024-02-13T07:53:11.565Z,53.36
2024-02-13T07:54:11.502Z,53.39
2024-02-13T07:55:13.070Z,53.96
2024-02-13T07:56:11.601Z,54.22
2024-02-13T07:57:11.588Z,54.39
2024-02-13T07:58:11.559Z,52.66
2024-02-13T07:59:11.704Z,52.90
2024-02-13T08:00:11.653Z,50.35
2024-02-13T08:01:12.949Z,53.44
2024-02-13T08:02:11.812Z,52.24
2024-02-13T08:03:11.693Z,52.14
2024-02-13T08:04:11.755Z,55.11
2024-02-13T08:05:11.835Z,54.02
2024-02-13T08:06:11.876Z,53.20
2024-02-13T08:07:11.757Z,53.99
2024-02-13T08:08:11.811Z,55.17
2024-02-13T08:09:11.825Z,55.67
2024-02-13T08:10:11.883Z,52.50
2024-02-13T08:11:11.906Z,55.39
2024-02-13T08:12:11.898Z,51.89
2024-02-13T08:13:11.951Z,52.75
2024-02-13T08:14:11.971Z,51.81
2024-02-13T08:15:11.955Z,54.89
2024-02-13T08:16:11.971Z,54.13
2024-02-13T08:17:12.290Z,52.17
2024-02-13T08:18:12.124Z,54.33
2024-02-13T08:19:12.059Z,54.60
2024-02-13T08:20:12.187Z,53.91
2024-02-13T08:21:12.097Z,49.83
2024-02-13T08:22:12.144Z,53.32
2024-02-13T08:23:12.173Z,52.01
2024-02-13T08:24:12.121Z,53.44
2024-02-13T08:25:12.216Z,56.48
2024-02-13T08:26:12.199Z,54.71
2024-02-13T08:27:12.257Z,54.85
2024-02-13T08:28:12.238Z,55.52
2024-02-13T08:29:12.311Z,56.84
2024-02-13T08:30:12.554Z,55.51
2024-02-13T08:31:12.312Z,51.61
2024-02-13T08:32:12.352Z,55.68
2024-02-13T08:33:12.527Z,53.56
2024-02-13T08:34:12.670Z,55.02
2024-02-13T08:35:12.629Z,53.99
2024-02-13T08:36:12.441Z,54.54
2024-02-13T08:37:12.440Z,55.06
2024-02-13T08:38:12.555Z,54.20
2024-02-13T08:39:12.481Z,51.28
2024-02-13T08:40:12.525Z,53.43
2024-02-13T08:41:12.578Z,53.12
2024-02-13T08:42:12.570Z,53.19
2024-02-13T08:43:12.582Z,53.48
2024-02-13T08:44:12.603Z,54.15
2024-02-13T08:45:12.640Z,53.26
2024-02-13T08:46:12.636Z,55.40
2024-02-13T08:47:12.659Z,52.99
2024-02-13T08:48:12.788Z,51.28
2024-02-13T08:49:12.979Z,52.66
2024-02-13T08:50:12.951Z,51.60
2024-02-13T08:51:12.817Z,52.68
2024-02-13T08:52:12.777Z,51.55
2024-02-13T08:53:12.821Z,52.99
2024-02-13T08:54:13.082Z,52.27
2024-02-13T08:55:12.841Z,52.73
2024-02-13T08:56:12.907Z,52.71
2024-02-13T08:57:12.893Z,54.13
2024-02-13T08:58:12.897Z,55.89
2024-02-13T08:59:13.108Z,53.91
2024-02-13T09:00:13.126Z,52.49
2024-02-13T09:01:13.011Z,53.20
2024-02-13T09:02:13.078Z,51.65
2024-02-13T09:03:13.016Z,50.41
2024-02-13T09:04:13.089Z,52.32
2024-02-13T09:05:13.246Z,52.08
2024-02-13T09:06:13.216Z,55.97
2024-02-13T09:07:13.104Z,53.17
2024-02-13T09:08:13.184Z,53.02
2024-02-13T09:09:13.333Z,51.78
2024-02-13T09:10:13.397Z,53.31
2024-02-13T09:11:13.239Z,52.49
2024-02-13T09:12:13.232Z,54.73
2024-02-13T09:13:13.848Z,53.43
2024-02-13T09:14:13.340Z,53.25
2024-02-13T09:15:13.295Z,52.31
2024-02-13T09:16:14.082Z,54.93
2024-02-13T09:17:13.433Z,54.18
2024-02-13T09:18:13.477Z,51.34
2024-02-13T09:19:13.545Z,51.80
2024-02-13T09:20:13.405Z,53.89
2024-02-13T09:21:13.435Z,53.26
2024-02-13T09:22:13.426Z,52.40
2024-02-13T09:23:13.539Z,52.63
2024-02-13T09:24:14.232Z,50.22
2024-02-13T09:25:13.483Z,54.39
2024-02-13T09:26:13.584Z,53.70
2024-02-13T09:27:13.518Z,52.10
2024-02-13T09:28:13.539Z,51.84
2024-02-13T09:29:13.615Z,50.15
2024-02-13T09:30:13.591Z,57.04
2024-02-13T09:31:13.663Z,51.05
2024-02-13T09:32:13.652Z,50.89
2024-02-13T09:33:13.804Z,50.00
2024-02-13T09:34:13.745Z,53.71
2024-02-13T09:35:13.812Z,53.20
2024-02-13T09:36:13.696Z,51.78
2024-02-13T09:37:13.710Z,53.86
2024-02-13T09:38:13.825Z,54.77
2024-02-13T09:39:13.747Z,53.02
2024-02-13T09:40:13.846Z,54.55
2024-02-13T09:41:13.830Z,53.74
2024-02-13T09:42:13.829Z,54.06
2024-02-13T09:43:13.856Z,53.44
2024-02-13T09:44:13.884Z,55.26
2024-02-13T09:45:13.925Z,54.55
2024-02-13T09:46:13.956Z,53.75
2024-02-13T09:47:13.996Z,53.48
2024-02-13T09:48:14.257Z,53.02
2024-02-13T09:49:14.284Z,53.93
2024-02-13T09:50:14.305Z,51.54
2024-02-13T09:51:14.190Z,54.47
2024-02-13T09:52:14.219Z,52.06
2024-02-13T09:53:14.241Z,52.67
2024-02-13T09:54:14.268Z,50.61
2024-02-13T09:55:14.271Z,53.79
2024-02-13T09:56:14.283Z,56.08
2024-02-13T09:57:14.356Z,52.83
2024-02-13T09:58:14.297Z,51.32
2024-02-13T09:59:14.408Z,51.57
2024-02-13T10:00:14.367Z,53.36
2024-02-13T10:01:14.410Z,53.34
2024-02-13T10:02:14.403Z,52.76
2024-02-13T10:03:14.559Z,52.24
2024-02-13T10:04:14.486Z,56.15
2024-02-13T10:05:15.424Z,53.04
2024-02-13T10:06:14.687Z,53.50
2024-02-13T10:07:14.466Z,53.67
2024-02-13T10:08:14.522Z,52.12
2024-02-13T10:09:14.490Z,53.38
2024-02-13T10:10:14.581Z,52.09
2024-02-13T10:11:14.716Z,53.97
2024-02-13T10:12:14.570Z,50.00
2024-02-13T10:13:14.615Z,53.59
2024-02-13T10:14:14.625Z,51.82
2024-02-13T10:15:14.628Z,52.98
2024-02-13T10:16:14.654Z,54.69
2024-02-13T10:17:14.731Z,53.64
2024-02-13T10:18:14.838Z,56.29
2024-02-13T10:19:14.828Z,55.54
2024-02-13T10:20:14.774Z,55.67
2024-02-13T10:21:14.799Z,53.26
2024-02-13T10:22:14.786Z,55.82
2024-02-13T10:23:14.912Z,56.24
2024-02-13T10:24:15.160Z,53.17
2024-02-13T10:25:14.846Z,53.02
2024-02-13T10:26:14.847Z,56.59
2024-02-13T10:27:14.942Z,55.79
2024-02-13T10:28:14.919Z,53.71
2024-02-13T10:29:14.989Z,55.55
2024-02-13T10:30:14.935Z,53.63
2024-02-13T10:31:15.000Z,54.56
2024-02-13T10:32:15.056Z,55.12
2024-02-13T10:33:15.114Z,53.31
2024-02-13T10:34:15.121Z,53.86
2024-02-13T10:35:15.209Z,54.29
2024-02-13T10:36:15.106Z,52.77
2024-02-13T10:37:17.335Z,54.62
2024-02-13T10:38:15.160Z,52.50
2024-02-13T10:39:15.147Z,53.57
2024-02-13T10:40:15.212Z,56.04
2024-02-13T10:41:15.205Z,53.89
2024-02-13T10:42:15.234Z,55.21
2024-02-13T10:43:15.273Z,53.40
2024-02-13T10:44:15.560Z,52.29
2024-02-13T10:45:15.333Z,53.59
2024-02-13T10:46:15.292Z,54.12
2024-02-13T10:47:15.379Z,54.75
2024-02-13T10:48:15.555Z,54.09
2024-02-13T10:49:15.390Z,54.96
2024-02-13T10:50:15.422Z,53.64
2024-02-13T10:51:15.406Z,55.14
2024-02-13T10:52:15.436Z,53.29
2024-02-13T10:53:15.482Z,53.86
2024-02-13T10:54:15.446Z,52.93
2024-02-13T10:55:15.522Z,52.36
2024-02-13T10:56:15.632Z,53.08
2024-02-13T10:57:15.612Z,53.07
2024-02-13T10:58:24.210Z,52.96
2024-02-13T10:59:16.598Z,53.13
2024-02-13T11:00:15.780Z,53.34
2024-02-13T11:01:16.714Z,53.02
2024-02-13T11:02:15.866Z,53.68
2024-02-13T11:03:15.838Z,54.33
2024-02-13T11:04:15.852Z,55.41
2024-02-13T11:05:15.860Z,53.92
2024-02-13T11:06:15.880Z,54.45
2024-02-13T11:07:15.884Z,54.05
2024-02-13T11:08:15.843Z,53.55
2024-02-13T11:09:15.857Z,52.93
2024-02-13T11:10:15.858Z,54.51
2024-02-13T11:11:15.971Z,54.38
2024-02-13T11:12:16.033Z,53.29
2024-02-13T11:13:17.997Z,52.97
2024-02-13T11:14:15.969Z,53.71
2024-02-13T11:15:15.950Z,53.06
2024-02-13T11:16:15.937Z,56.89
2024-02-13T11:17:16.000Z,54.54
2024-02-13T11:18:16.149Z,52.71
2024-02-13T11:19:16.013Z,54.50
2024-02-13T11:20:16.071Z,55.45
2024-02-13T11:21:16.062Z,52.35
2024-02-13T11:22:16.542Z,54.74
2024-02-13T11:23:16.078Z,56.65
2024-02-13T11:24:16.106Z,53.79
2024-02-13T11:25:16.116Z,51.59
2024-02-13T11:26:16.192Z,52.58
2024-02-13T11:27:24.151Z,52.97
2024-02-13T11:28:17.266Z,53.10
2024-02-13T11:29:16.171Z,53.39
2024-02-13T11:30:16.176Z,53.38
2024-02-13T11:31:16.250Z,53.78
2024-02-13T11:32:16.170Z,52.64
2024-02-13T11:33:16.292Z,50.15
2024-02-13T11:34:16.308Z,53.87
2024-02-13T11:35:16.331Z,50.27
2024-02-13T11:36:16.228Z,54.16
2024-02-13T11:37:16.207Z,52.11
2024-02-13T11:38:16.250Z,52.54
2024-02-13T11:39:16.249Z,57.40
2024-02-13T11:40:16.281Z,53.05
2024-02-13T11:41:16.257Z,51.50
2024-02-13T11:42:16.292Z,50.31
2024-02-13T11:43:16.259Z,53.83
2024-02-13T11:44:16.353Z,51.33
2024-02-13T11:45:16.307Z,53.27
2024-02-13T11:46:16.365Z,52.08
2024-02-13T11:47:16.472Z,50.27
2024-02-13T11:48:16.538Z,51.31
2024-02-13T11:49:16.572Z,54.02
2024-02-13T11:50:16.554Z,52.12
2024-02-13T11:51:16.539Z,52.69
2024-02-13T11:52:16.402Z,51.98
2024-02-13T11:53:16.441Z,52.15
2024-02-13T11:54:16.419Z,53.49
2024-02-13T11:55:16.889Z,51.22
2024-02-13T11:56:16.483Z,52.24
2024-02-13T11:57:16.486Z,53.89
2024-02-13T11:58:16.515Z,51.95
2024-02-13T11:59:16.543Z,50.57
2024-02-13T12:00:16.630Z,52.75
2024-02-13T12:01:16.635Z,53.08
2024-02-13T12:02:16.624Z,54.29
2024-02-13T12:03:16.569Z,52.32
2024-02-13T12:04:16.631Z,52.35
2024-02-13T12:05:16.670Z,51.85
2024-02-13T12:06:16.704Z,55.23
2024-02-13T12:07:16.704Z,54.24
2024-02-13T12:08:16.709Z,52.79
2024-02-13T12:09:16.697Z,52.86
2024-02-13T12:10:16.718Z,52.69
2024-02-13T12:11:16.830Z,55.10
2024-02-13T12:12:16.725Z,52.56
2024-02-13T12:13:16.779Z,56.21
2024-02-13T12:14:16.787Z,53.80
2024-02-13T12:15:16.801Z,53.48
2024-02-13T12:16:16.807Z,55.08
2024-02-13T12:17:16.893Z,54.60
2024-02-13T12:18:17.014Z,55.12
2024-02-13T12:19:16.935Z,52.45
2024-02-13T12:20:16.933Z,54.55
2024-02-13T12:21:16.930Z,53.39
2024-02-13T12:22:16.949Z,53.72
2024-02-13T12:23:17.014Z,51.44
2024-02-13T12:24:16.987Z,52.47
2024-02-13T12:25:17.040Z,51.56
2024-02-13T12:26:17.063Z,54.86
2024-02-13T12:27:17.236Z,53.17
2024-02-13T12:28:17.057Z,52.90
2024-02-13T12:29:17.259Z,53.91
2024-02-13T12:30:17.113Z,53.77
2024-02-13T12:31:17.176Z,51.98
2024-02-13T12:32:17.311Z,54.80
2024-02-13T12:33:17.303Z,52.83
2024-02-13T12:34:17.456Z,53.08
2024-02-13T12:35:17.323Z,53.57
2024-02-13T12:36:17.327Z,52.36
2024-02-13T12:37:17.363Z,54.95
2024-02-13T12:38:17.393Z,53.60
2024-02-13T12:39:17.393Z,53.50
2024-02-13T12:40:17.472Z,53.00
2024-02-13T12:41:17.446Z,52.06
2024-02-13T12:42:17.397Z,55.12
2024-02-13T12:43:17.659Z,51.92
2024-02-13T12:44:17.535Z,54.56
2024-02-13T12:45:17.512Z,54.03
2024-02-13T12:46:17.522Z,54.39
2024-02-13T12:47:17.626Z,51.42
2024-02-13T12:48:17.692Z,51.92
2024-02-13T12:49:17.828Z,52.81
2024-02-13T12:50:18.040Z,53.98
2024-02-13T12:51:17.731Z,54.77
2024-02-13T12:52:17.658Z,52.63
2024-02-13T12:53:17.907Z,53.75
2024-02-13T12:54:17.733Z,53.72